Time;durP1;ratioP1;P1;durP2;ratioP2;P2;SDS_P1;SDS_P2;PMS_P1;PMS_P2;Temp;Humidity;BMP_temperature;BMP_pressure;BME280_temperature;BME280_humidity;BME280_pressure;Samples;Min_cycle;Max_cycle;Signal;HPM_P1;HPM_P2
2022/05/15 00:00:38;;;;;;;;;;;24.10;38.70;;;;;;8297587;28;20374;-47
2022/05/15 00:04:39;;;;;;;;;;;24.10;38.60;;;;;;8297664;28;20016;-48
2022/05/15 00:08:39;;;;;;;;;;;24.10;38.60;;;;;;8297807;28;19921;-51
2022/05/15 00:12:40;;;;;;;;;;;24.10;38.60;;;;;;8297027;28;19925;-51
2022/05/15 00:16:40;;;;;;;;;;;24.10;38.70;;;;;;8297412;28;19914;-50
2022/05/15 00:20:41;;;;;;;;;;;24.10;38.70;;;;;;8297166;28;20260;-52
2022/05/15 00:24:42;;;;;;;;;;;24.10;38.70;;;;;;8297046;28;20016;-50
2022/05/15 00:28:42;;;;;;;;;;;24.10;38.70;;;;;;8302179;28;19921;-51
2022/05/15 00:32:42;;;;;;;;;;;24.00;38.70;;;;;;8303669;28;19953;-50
2022/05/15 00:36:43;;;;;;;;;;;24.00;38.70;;;;;;8303263;28;19918;-51
2022/05/15 00:40:44;;;;;;;;;;;24.00;38.70;;;;;;8303760;28;20370;-49
2022/05/15 00:44:45;;;;;;;;;;;24.00;38.70;;;;;;8303487;28;19923;-50
2022/05/15 00:48:46;;;;;;;;;;;24.00;38.70;;;;;;8302977;28;20354;-49
2022/05/15 00:52:48;;;;;;;;;;;24.00;38.80;;;;;;8303389;28;20004;-48
2022/05/15 00:57:02;;;;;;;;;;;24.00;38.80;;;;;;8302654;28;19960;-51
2022/05/15 01:01:04;;;;;;;;;;;23.90;38.70;;;;;;8303550;28;19936;-49
2022/05/15 01:05:05;;;;;;;;;;;24.00;38.80;;;;;;8302049;28;19924;-49
2022/05/15 01:09:05;;;;;;;;;;;24.00;38.80;;;;;;8302323;28;19918;-47
2022/05/15 01:13:06;;;;;;;;;;;23.90;38.80;;;;;;8302901;28;19933;-50
2022/05/15 01:17:06;;;;;;;;;;;23.90;38.80;;;;;;8302503;28;19917;-47
2022/05/15 01:21:25;;;;;;;;;;;23.90;38.80;;;;;;8302424;28;19969;-50
2022/05/15 01:25:34;;;;;;;;;;;23.90;38.80;;;;;;8302561;28;20287;-52
2022/05/15 01:29:41;;;;;;;;;;;23.90;38.80;;;;;;8302252;28;20414;-47
2022/05/15 01:33:45;;;;;;;;;;;23.90;38.80;;;;;;8301500;28;20389;-52
2022/05/15 01:37:45;;;;;;;;;;;23.80;38.80;;;;;;8301525;28;20458;-52
2022/05/15 01:41:46;;;;;;;;;;;23.80;38.80;;;;;;8301697;28;19913;-49
2022/05/15 01:45:46;;;;;;;;;;;23.80;38.80;;;;;;8301535;28;19914;-49
2022/05/15 01:49:47;;;;;;;;;;;23.80;38.90;;;;;;8301448;28;19929;-50
2022/05/15 01:53:48;;;;;;;;;;;23.80;38.80;;;;;;8300792;28;19936;-48
2022/05/15 01:57:48;;;;;;;;;;;23.80;38.90;;;;;;8301204;28;19917;-47
2022/05/15 02:01:48;;;;;;;;;;;23.80;38.90;;;;;;8301230;28;20355;-46
2022/05/15 02:05:50;;;;;;;;;;;23.80;38.90;;;;;;8300843;28;20374;-46
2022/05/15 02:09:50;;;;;;;;;;;23.80;38.90;;;;;;8301091;28;19944;-47
2022/05/15 02:13:51;;;;;;;;;;;23.70;38.80;;;;;;8300556;28;19922;-46
2022/05/15 02:17:52;;;;;;;;;;;23.70;38.90;;;;;;8300126;28;19922;-49
2022/05/15 02:21:53;;;;;;;;;;;23.70;38.80;;;;;;8300585;28;19914;-49
2022/05/15 02:25:53;;;;;;;;;;;23.70;38.90;;;;;;8300692;28;19917;-48
2022/05/15 02:29:54;;;;;;;;;;;23.70;38.90;;;;;;8299732;28;20371;-48
2022/05/15 02:33:55;;;;;;;;;;;23.70;38.90;;;;;;8315143;28;19925;-47
2022/05/15 02:37:55;;;;;;;;;;;23.70;38.90;;;;;;8300406;28;19914;-47
2022/05/15 02:41:56;;;;;;;;;;;23.70;38.90;;;;;;8299866;28;19924;-46
2022/05/15 02:45:56;;;;;;;;;;;23.70;39.50;;;;;;8298697;28;19918;-46
2022/05/15 02:54:15;;;;;;;;;;;23.70;39.00;;;;;;8298982;28;20004;-47
2022/05/15 02:58:16;;;;;;;;;;;23.60;38.90;;;;;;8299260;28;19914;-46
2022/05/15 03:02:16;;;;;;;;;;;23.60;39.40;;;;;;8299261;28;20383;-46
2022/05/15 03:06:18;;;;;;;;;;;23.60;38.90;;;;;;8298956;28;19917;-46
2022/05/15 03:10:19;;;;;;;;;;;23.60;38.90;;;;;;8298905;28;19924;-46
2022/05/15 03:14:19;;;;;;;;;;;23.60;38.90;;;;;;8298876;28;19956;-47
2022/05/15 03:18:20;;;;;;;;;;;23.60;38.90;;;;;;8298351;28;19924;-47
2022/05/15 03:22:20;;;;;;;;;;;23.60;38.90;;;;;;8299151;28;20370;-47
2022/05/15 03:26:20;;;;;;;;;;;23.60;39.00;;;;;;8298677;28;20334;-47
2022/05/15 03:30:21;;;;;;;;;;;23.50;39.00;;;;;;8298126;28;19918;-47
2022/05/15 03:34:22;;;;;;;;;;;23.60;39.00;;;;;;8298482;28;19926;-47
2022/05/15 03:38:22;;;;;;;;;;;23.50;39.00;;;;;;8298254;28;20275;-49
2022/05/15 03:42:24;;;;;;;;;;;23.50;39.00;;;;;;8297994;28;19940;-47
2022/05/15 03:46:25;;;;;;;;;;;23.50;39.00;;;;;;8298016;28;19922;-47
2022/05/15 03:50:27;;;;;;;;;;;23.50;39.00;;;;;;8298179;28;19971;-46
2022/05/15 03:54:27;;;;;;;;;;;23.50;39.00;;;;;;8297360;28;19932;-48
2022/05/15 03:58:33;;;;;;;;;;;23.50;39.00;;;;;;8297799;28;19918;-48
2022/05/15 04:02:34;;;;;;;;;;;23.40;39.00;;;;;;8297047;28;19922;-48
2022/05/15 04:06:34;;;;;;;;;;;23.50;39.00;;;;;;8297523;28;19928;-48
2022/05/15 04:10:35;;;;;;;;;;;23.40;39.00;;;;;;8298117;28;19917;-47
2022/05/15 04:14:35;;;;;;;;;;;23.40;39.00;;;;;;8297793;28;20023;-45
2022/05/15 04:18:36;;;;;;;;;;;23.40;39.00;;;;;;8297169;28;19925;-48
2022/05/15 04:22:36;;;;;;;;;;;23.40;39.00;;;;;;8297706;28;19918;-46
2022/05/15 04:26:38;;;;;;;;;;;23.40;39.00;;;;;;8297364;28;19921;-46
2022/05/15 04:30:38;;;;;;;;;;;23.40;39.00;;;;;;8296941;28;20040;-46
2022/05/15 04:34:39;;;;;;;;;;;23.40;39.00;;;;;;8297169;28;20410;-48
2022/05/15 04:38:39;;;;;;;;;;;23.40;39.00;;;;;;8297323;28;19920;-49
2022/05/15 04:42:40;;;;;;;;;;;23.40;39.00;;;;;;8296917;28;19924;-47
2022/05/15 04:46:41;;;;;;;;;;;23.40;39.00;;;;;;8297270;28;19923;-47
2022/05/15 04:50:41;;;;;;;;;;;23.40;39.00;;;;;;8294864;28;20379;-49
2022/05/15 04:54:41;;;;;;;;;;;23.40;39.00;;;;;;8296404;28;19926;-46
2022/05/15 04:58:42;;;;;;;;;;;23.40;39.00;;;;;;8297202;28;19913;-47
2022/05/15 05:02:42;;;;;;;;;;;23.30;38.90;;;;;;8297310;28;19975;-46
2022/05/15 05:06:43;;;;;;;;;;;23.30;38.90;;;;;;8296328;28;19964;-46
2022/05/15 05:10:43;;;;;;;;;;;23.30;38.90;;;;;;8296851;28;19918;-47
2022/05/15 05:14:44;;;;;;;;;;;23.30;38.90;;;;;;8300880;28;19933;-48
2022/05/15 05:18:44;;;;;;;;;;;23.30;38.90;;;;;;8302002;28;20000;-48
2022/05/15 05:22:45;;;;;;;;;;;23.30;38.90;;;;;;8302576;28;19913;-46
2022/05/15 05:26:46;;;;;;;;;;;23.30;38.90;;;;;;8302243;28;19925;-48
2022/05/15 05:30:47;;;;;;;;;;;23.30;38.90;;;;;;8301684;28;19968;-48
2022/05/15 05:34:47;;;;;;;;;;;23.30;38.90;;;;;;8301866;28;19925;-49
2022/05/15 05:38:47;;;;;;;;;;;23.30;38.90;;;;;;8301457;28;19929;-46
2022/05/15 05:42:48;;;;;;;;;;;23.30;38.80;;;;;;8302195;28;19959;-47
2022/05/15 05:46:48;;;;;;;;;;;23.30;38.80;;;;;;8301552;28;20004;-48
2022/05/15 05:50:49;;;;;;;;;;;23.30;38.80;;;;;;8301174;28;20351;-48
2022/05/15 05:54:50;;;;;;;;;;;23.30;38.80;;;;;;8301547;28;19930;-46
2022/05/15 05:58:50;;;;;;;;;;;23.30;38.80;;;;;;8301183;28;19917;-47
2022/05/15 06:02:51;;;;;;;;;;;23.30;38.90;;;;;;8300864;28;20026;-48
2022/05/15 06:06:53;;;;;;;;;;;23.30;38.90;;;;;;8300262;28;21473;-47
2022/05/15 06:10:53;;;;;;;;;;;23.30;38.80;;;;;;8301111;28;19924;-47
2022/05/15 06:14:54;;;;;;;;;;;23.30;38.90;;;;;;8300209;28;19929;-51
2022/05/15 06:18:54;;;;;;;;;;;23.30;38.90;;;;;;8300861;28;19918;-47
2022/05/15 06:22:55;;;;;;;;;;;23.20;38.80;;;;;;8300606;28;20008;-51
2022/05/15 06:27:02;;;;;;;;;;;23.30;38.90;;;;;;8299914;28;19917;-48
2022/05/15 06:31:03;;;;;;;;;;;23.20;38.80;;;;;;8302685;28;19964;-48
2022/05/15 06:35:03;;;;;;;;;;;23.30;38.90;;;;;;8299979;28;19921;-47
2022/05/15 06:39:04;;;;;;;;;;;23.30;38.80;;;;;;8299589;28;20333;-48
2022/05/15 06:43:04;;;;;;;;;;;23.30;38.80;;;;;;8300057;28;19920;-47
2022/05/15 06:47:05;;;;;;;;;;;23.30;38.80;;;;;;8299915;28;20401;-49
2022/05/15 06:51:06;;;;;;;;;;;23.30;38.80;;;;;;8299390;28;20363;-47
2022/05/15 06:55:08;;;;;;;;;;;23.30;38.80;;;;;;8299639;28;20052;-49
2022/05/15 06:59:09;;;;;;;;;;;23.30;38.80;;;;;;8299864;28;19975;-46
2022/05/15 07:03:09;;;;;;;;;;;23.30;38.70;;;;;;8299499;28;20024;-47
2022/05/15 07:07:10;;;;;;;;;;;23.30;38.70;;;;;;8298333;28;20433;-48
2022/05/15 07:11:11;;;;;;;;;;;23.30;38.70;;;;;;8299006;28;19944;-45
2022/05/15 07:15:11;;;;;;;;;;;23.30;38.70;;;;;;8298481;28;19979;-46
2022/05/15 07:19:11;;;;;;;;;;;23.30;38.70;;;;;;8298705;28;19921;-46
2022/05/15 07:23:12;;;;;;;;;;;23.30;38.80;;;;;;8298968;28;19917;-46
2022/05/15 07:27:14;;;;;;;;;;;23.30;38.80;;;;;;8298043;28;19918;-46
2022/05/15 07:31:15;;;;;;;;;;;23.30;38.80;;;;;;8298710;28;19956;-48
2022/05/15 07:35:16;;;;;;;;;;;23.30;39.30;;;;;;8297814;28;20330;-45
2022/05/15 07:39:18;;;;;;;;;;;23.30;38.80;;;;;;8297725;28;19918;-45
2022/05/15 07:43:19;;;;;;;;;;;23.30;38.80;;;;;;8298552;28;19917;-45
2022/05/15 07:47:20;;;;;;;;;;;23.30;38.80;;;;;;8298065;28;20392;-47
2022/05/15 07:51:21;;;;;;;;;;;23.30;38.80;;;;;;8297504;28;20004;-49
2022/05/15 07:55:22;;;;;;;;;;;23.30;38.80;;;;;;8297807;28;19922;-46
2022/05/15 07:59:22;;;;;;;;;;;23.30;38.80;;;;;;8298041;28;20390;-46
2022/05/15 08:03:22;;;;;;;;;;;23.40;38.90;;;;;;8297819;28;19925;-46
2022/05/15 08:11:42;;;;;;;;;;;23.40;38.90;;;;;;8297750;28;20019;-48
2022/05/15 08:15:43;;;;;;;;;;;23.40;38.90;;;;;;8297157;28;19925;-45
2022/05/15 08:24:03;;;;;;;;;;;23.40;38.90;;;;;;8297374;28;19925;-48
2022/05/15 08:28:03;;;;;;;;;;;23.40;38.90;;;;;;8297649;28;19917;-48
2022/05/15 08:32:05;;;;;;;;;;;23.40;38.90;;;;;;8297289;28;19960;-47
2022/05/15 08:36:06;;;;;;;;;;;23.50;38.90;;;;;;8296999;28;19924;-46
2022/05/15 08:40:07;;;;;;;;;;;23.50;38.90;;;;;;8297211;28;19993;-47
2022/05/15 08:44:29;;;;;;;;;;;23.50;38.90;;;;;;8297261;28;19928;-51
2022/05/15 08:48:31;;;;;;;;;;;23.50;39.00;;;;;;8299520;28;19918;-49
2022/05/15 08:52:45;;;;;;;;;;;23.60;39.00;;;;;;8303641;28;19925;-47
2022/05/15 08:56:47;;;;;;;;;;;23.60;38.90;;;;;;8303299;28;19913;-51
2022/05/15 09:00:52;;;;;;;;;;;23.60;39.00;;;;;;8302675;28;19922;-49
2022/05/15 09:04:53;;;;;;;;;;;23.60;38.90;;;;;;8302728;28;20000;-47
2022/05/15 09:09:06;;;;;;;;;;;23.60;39.00;;;;;;8302599;28;19918;-46
2022/05/15 09:13:11;;;;;;;;;;;23.60;38.90;;;;;;8302627;28;19925;-49
2022/05/15 09:17:31;;;;;;;;;;;23.70;38.90;;;;;;8302707;28;20340;-47
2022/05/15 09:21:31;;;;;;;;;;;23.70;38.90;;;;;;8302026;28;19959;-50
2022/05/15 09:25:33;;;;;;;;;;;23.70;38.90;;;;;;8302501;28;19914;-48
2022/05/15 09:29:34;;;;;;;;;;;23.70;38.90;;;;;;8302244;28;19917;-48
2022/05/15 09:33:36;;;;;;;;;;;23.80;39.00;;;;;;8301872;28;19948;-46
2022/05/15 09:46:25;;;;;;;;;;;23.80;38.90;;;;;;8290854;28;19917;-46
2022/05/15 09:50:44;;;;;;;;;;;23.80;38.90;;;;;;8301497;28;19996;-46
2022/05/15 09:54:46;;;;;;;;;;;23.80;38.90;;;;;;8301175;28;20318;-47
2022/05/15 09:58:50;;;;;;;;;;;23.80;38.90;;;;;;8300801;28;19918;-46
2022/05/15 10:02:52;;;;;;;;;;;23.90;38.90;;;;;;8300974;28;19930;-46
2022/05/15 10:06:54;;;;;;;;;;;23.90;38.90;;;;;;8301036;28;19917;-47
2022/05/15 10:11:15;;;;;;;;;;;23.90;38.90;;;;;;8300258;28;20275;-49
2022/05/15 10:15:16;;;;;;;;;;;23.90;38.90;;;;;;8301754;28;19964;-47
2022/05/15 10:19:32;;;;;;;;;;;23.90;38.90;;;;;;8300982;28;19914;-46
2022/05/15 10:23:45;;;;;;;;;;;24.00;38.90;;;;;;8300440;28;19924;-50
2022/05/15 10:27:49;;;;;;;;;;;24.00;38.90;;;;;;8300183;28;20306;-47
2022/05/15 10:31:51;;;;;;;;;;;24.00;38.90;;;;;;8300155;28;19924;-47
2022/05/15 10:36:11;;;;;;;;;;;24.00;39.00;;;;;;8299734;28;19926;-46
2022/05/15 10:40:14;;;;;;;;;;;24.00;38.90;;;;;;8300309;28;19920;-47
2022/05/15 10:44:29;;;;;;;;;;;24.00;38.90;;;;;;8299976;28;19917;-49
2022/05/15 10:48:40;;;;;;;;;;;24.10;38.90;;;;;;8299247;28;19918;-46
2022/05/15 10:52:46;;;;;;;;;;;24.10;38.90;;;;;;8299457;28;19972;-47
2022/05/15 11:01:08;;;;;;;;;;;24.10;38.90;;;;;;8306689;28;19976;-46
2022/05/15 11:05:15;;;;;;;;;;;24.20;38.90;;;;;;8299531;28;20370;-46
2022/05/15 11:09:21;;;;;;;;;;;24.10;38.80;;;;;;8298636;28;19925;-47
2022/05/15 11:13:34;;;;;;;;;;;24.20;38.80;;;;;;8298439;28;19925;-48
2022/05/15 11:17:43;;;;;;;;;;;24.20;38.80;;;;;;8298914;28;19917;-46
2022/05/15 11:21:50;;;;;;;;;;;24.30;38.80;;;;;;8298355;28;20000;-48
2022/05/15 11:25:55;;;;;;;;;;;24.20;38.80;;;;;;8298711;28;19913;-45
2022/05/15 11:29:57;;;;;;;;;;;24.30;38.80;;;;;;8298363;28;19959;-48
2022/05/15 11:34:02;;;;;;;;;;;24.30;38.80;;;;;;8298642;28;19933;-46
2022/05/15 11:38:05;;;;;;;;;;;24.30;38.80;;;;;;8298315;28;19923;-45
2022/05/15 11:42:14;;;;;;;;;;;24.30;38.70;;;;;;8298172;28;19918;-47
2022/05/15 11:46:15;;;;;;;;;;;24.40;38.70;;;;;;8298395;28;20335;-48
2022/05/15 11:50:28;;;;;;;;;;;24.40;38.70;;;;;;8298546;28;19913;-47
2022/05/15 11:54:31;;;;;;;;;;;24.50;38.70;;;;;;8297425;28;19935;-50
2022/05/15 11:58:33;;;;;;;;;;;24.50;38.70;;;;;;8297962;28;19979;-49
2022/05/15 12:02:41;;;;;;;;;;;24.50;38.70;;;;;;8298175;28;19926;-48
2022/05/15 12:06:47;;;;;;;;;;;24.50;38.60;;;;;;8297431;28;19918;-49
2022/05/15 12:10:47;;;;;;;;;;;24.50;38.60;;;;;;8298185;28;19921;-51
2022/05/15 12:15:08;;;;;;;;;;;24.50;38.60;;;;;;8297287;28;19930;-47
2022/05/15 12:19:22;;;;;;;;;;;24.50;38.60;;;;;;8297550;28;19929;-49
2022/05/15 12:23:24;;;;;;;;;;;24.60;38.60;;;;;;8301829;28;20362;-48
2022/05/15 12:27:26;;;;;;;;;;;24.60;38.60;;;;;;8303724;28;19917;-46
2022/05/15 12:31:37;;;;;;;;;;;24.60;38.60;;;;;;8303992;28;19924;-47
2022/05/15 12:35:39;;;;;;;;;;;24.60;38.60;;;;;;8304164;28;20413;-47
2022/05/15 12:39:41;;;;;;;;;;;24.60;38.60;;;;;;8303221;28;19952;-49
2022/05/15 12:43:44;;;;;;;;;;;24.70;38.60;;;;;;8303575;28;19918;-46
2022/05/15 12:47:56;;;;;;;;;;;24.70;38.50;;;;;;8303642;28;19963;-48
2022/05/15 12:52:10;;;;;;;;;;;24.70;38.50;;;;;;8303165;28;19918;-49
2022/05/15 12:56:30;;;;;;;;;;;24.70;38.50;;;;;;8303343;28;19921;-49
2022/05/15 13:00:32;;;;;;;;;;;24.80;38.50;;;;;;8303134;28;19983;-50
2022/05/15 13:04:33;;;;;;;;;;;24.80;38.50;;;;;;8302349;28;19921;-50
2022/05/15 13:08:44;;;;;;;;;;;24.80;38.50;;;;;;8302786;28;19997;-47
2022/05/15 13:13:12;;;;;;;;;;;24.80;38.50;;;;;;8302172;28;19926;-52
2022/05/15 13:17:20;;;;;;;;;;;24.80;38.50;;;;;;8302553;28;19920;-49
2022/05/15 13:21:34;;;;;;;;;;;24.90;38.50;;;;;;8302161;28;20341;-48
2022/05/15 13:25:36;;;;;;;;;;;24.90;38.50;;;;;;8302846;28;19945;-48
2022/05/15 13:29:37;;;;;;;;;;;24.90;38.40;;;;;;8302310;28;20375;-49
2022/05/15 13:33:38;;;;;;;;;;;24.90;38.50;;;;;;8300762;28;19987;-47
2022/05/15 13:37:41;;;;;;;;;;;24.90;38.50;;;;;;8301956;28;19921;-48
2022/05/15 13:46:04;;;;;;;;;;;24.90;38.40;;;;;;8301756;28;20063;-47
2022/05/15 13:50:04;;;;;;;;;;;25.00;38.40;;;;;;8301495;28;19917;-49
2022/05/15 13:54:08;;;;;;;;;;;25.00;38.50;;;;;;8301094;28;20309;-46
2022/05/15 13:58:08;;;;;;;;;;;25.00;38.50;;;;;;8301259;28;19921;-50
2022/05/15 14:02:14;;;;;;;;;;;25.00;38.40;;;;;;8301499;28;20039;-49
2022/05/15 14:06:16;;;;;;;;;;;25.00;38.40;;;;;;8300964;28;19945;-49
2022/05/15 14:10:19;;;;;;;;;;;25.00;38.40;;;;;;8301374;28;19918;-47
2022/05/15 14:14:38;;;;;;;;;;;25.00;38.40;;;;;;8300813;28;20382;-49
2022/05/15 14:18:38;;;;;;;;;;;25.00;38.40;;;;;;8300650;28;19918;-46
2022/05/15 14:22:39;;;;;;;;;;;25.10;38.40;;;;;;8300599;28;20378;-46
2022/05/15 14:26:40;;;;;;;;;;;25.10;38.40;;;;;;8300875;28;19917;-49
2022/05/15 14:30:44;;;;;;;;;;;25.10;38.40;;;;;;8300020;28;19925;-47
2022/05/15 14:34:44;;;;;;;;;;;25.10;38.40;;;;;;8300055;28;19926;-46
2022/05/15 14:38:45;;;;;;;;;;;25.10;38.40;;;;;;8300127;28;19917;-45
2022/05/15 14:42:45;;;;;;;;;;;25.10;38.40;;;;;;8299502;28;20375;-46
2022/05/15 14:46:46;;;;;;;;;;;25.10;38.40;;;;;;8298956;28;19917;-46
2022/05/15 14:50:47;;;;;;;;;;;25.10;38.40;;;;;;8299800;28;20381;-46
2022/05/15 14:54:48;;;;;;;;;;;25.20;38.40;;;;;;8299119;28;19925;-47
2022/05/15 14:59:07;;;;;;;;;;;25.20;38.40;;;;;;8299349;28;20317;-47
2022/05/15 15:03:08;;;;;;;;;;;25.20;38.40;;;;;;8299073;28;19952;-46
2022/05/15 15:07:09;;;;;;;;;;;25.20;38.40;;;;;;8299192;28;20008;-46
2022/05/15 15:11:18;;;;;;;;;;;25.20;38.30;;;;;;8299653;28;19917;-46
2022/05/15 15:15:19;;;;;;;;;;;25.20;38.30;;;;;;8298276;28;19979;-46
2022/05/15 15:19:22;;;;;;;;;;;25.20;38.30;;;;;;8298674;28;20264;-45
2022/05/15 15:23:22;;;;;;;;;;;25.20;38.30;;;;;;8298815;28;19913;-46
2022/05/15 15:27:23;;;;;;;;;;;25.20;38.30;;;;;;8298246;28;19992;-46
2022/05/15 15:31:25;;;;;;;;;;;25.20;38.30;;;;;;8298822;28;19917;-47
2022/05/15 15:35:27;;;;;;;;;;;25.20;38.30;;;;;;8298272;28;20280;-49
2022/05/15 15:39:27;;;;;;;;;;;25.20;38.20;;;;;;8298148;28;19918;-47
2022/05/15 15:43:34;;;;;;;;;;;25.30;38.30;;;;;;8298194;28;20000;-47
2022/05/15 15:47:35;;;;;;;;;;;25.30;38.30;;;;;;8298459;28;20011;-46
2022/05/15 15:51:37;;;;;;;;;;;25.30;38.30;;;;;;8298161;28;19924;-46
2022/05/15 15:55:37;;;;;;;;;;;25.30;38.30;;;;;;8297847;28;19926;-50
2022/05/15 15:59:38;;;;;;;;;;;25.30;38.20;;;;;;8297622;28;20363;-47
2022/05/15 16:03:38;;;;;;;;;;;25.20;38.20;;;;;;8297543;28;20405;-47
2022/05/15 16:07:39;;;;;;;;;;;25.30;38.30;;;;;;8297617;28;19921;-49
2022/05/15 16:11:45;;;;;;;;;;;25.30;38.20;;;;;;8296952;28;19968;-46
2022/05/15 16:15:45;;;;;;;;;;;25.30;38.30;;;;;;8297068;28;20052;-47
2022/05/15 16:19:46;;;;;;;;;;;25.30;38.30;;;;;;8297685;28;19921;-46
2022/05/15 16:23:48;;;;;;;;;;;25.30;38.30;;;;;;8297343;28;19919;-45
2022/05/15 16:27:49;;;;;;;;;;;25.30;38.20;;;;;;8297625;28;20000;-50
2022/05/15 16:31:49;;;;;;;;;;;25.30;38.30;;;;;;8297375;28;19922;-46
2022/05/15 16:35:50;;;;;;;;;;;25.30;38.20;;;;;;8296802;28;19949;-47
2022/05/15 16:39:51;;;;;;;;;;;25.30;38.20;;;;;;8297045;28;19933;-47
2022/05/15 16:43:52;;;;;;;;;;;25.30;38.20;;;;;;8297171;28;19983;-45
2022/05/15 16:47:53;;;;;;;;;;;25.30;38.20;;;;;;8297040;28;19921;-45
2022/05/15 16:51:54;;;;;;;;;;;25.30;38.20;;;;;;8298557;28;20288;-46
2022/05/15 16:55:55;;;;;;;;;;;25.30;38.20;;;;;;8298567;28;19972;-46
2022/05/15 16:59:55;;;;;;;;;;;25.30;38.30;;;;;;8298093;28;20000;-46
2022/05/15 17:03:56;;;;;;;;;;;25.30;38.20;;;;;;8299507;28;20389;-45
2022/05/15 17:07:56;;;;;;;;;;;25.30;38.30;;;;;;8299515;28;19921;-45
2022/05/15 17:11:57;;;;;;;;;;;25.30;38.30;;;;;;8304786;28;19917;-47
2022/05/15 17:15:58;;;;;;;;;;;25.30;38.30;;;;;;8304874;28;20016;-45
2022/05/15 17:19:58;;;;;;;;;;;25.30;38.30;;;;;;8304849;28;20329;-46
2022/05/15 17:23:59;;;;;;;;;;;25.30;38.40;;;;;;8303963;28;19925;-47
2022/05/15 17:28:04;;;;;;;;;;;25.30;38.30;;;;;;8305006;28;19917;-46
2022/05/15 17:36:24;;;;;;;;;;;25.30;38.30;;;;;;8305723;28;20079;-46
2022/05/15 17:40:27;;;;;;;;;;;25.30;38.40;;;;;;8303586;28;19918;-46
2022/05/15 17:44:31;;;;;;;;;;;25.30;38.40;;;;;;8302347;28;19914;-45
2022/05/15 17:48:31;;;;;;;;;;;25.30;38.40;;;;;;8301394;28;19924;-48
2022/05/15 17:52:32;;;;;;;;;;;25.20;38.30;;;;;;8301590;28;20376;-48
2022/05/15 17:56:32;;;;;;;;;;;25.20;38.30;;;;;;8301663;28;19918;-46
2022/05/15 18:00:34;;;;;;;;;;;25.20;38.40;;;;;;8301159;28;20004;-49
2022/05/15 18:04:34;;;;;;;;;;;25.20;38.40;;;;;;8300969;28;19929;-47
2022/05/15 18:08:35;;;;;;;;;;;25.20;38.60;;;;;;8300982;28;20268;-45
2022/05/15 18:12:35;;;;;;;;;;;25.20;38.50;;;;;;8300506;28;20349;-47
2022/05/15 18:16:39;;;;;;;;;;;25.20;38.50;;;;;;8300920;28;19928;-47
2022/05/15 18:20:40;;;;;;;;;;;25.20;38.50;;;;;;8300514;28;19965;-48
2022/05/15 18:24:40;;;;;;;;;;;25.20;38.50;;;;;;8300075;28;19963;-47
2022/05/15 18:28:41;;;;;;;;;;;25.20;38.50;;;;;;8300578;28;20470;-46
2022/05/15 18:32:43;;;;;;;;;;;25.20;38.60;;;;;;8300424;28;19917;-47
2022/05/15 18:36:45;;;;;;;;;;;25.20;38.60;;;;;;8299718;28;20393;-47
2022/05/15 18:40:46;;;;;;;;;;;25.20;38.50;;;;;;8300045;28;20304;-50
2022/05/15 18:44:46;;;;;;;;;;;25.20;38.50;;;;;;8299954;28;19918;-47
2022/05/15 18:48:46;;;;;;;;;;;25.20;38.50;;;;;;8299409;28;19914;-47
2022/05/15 18:57:06;;;;;;;;;;;25.10;38.50;;;;;;8299191;28;19924;-49
2022/05/15 19:01:06;;;;;;;;;;;25.20;38.50;;;;;;8298520;28;19921;-48
2022/05/15 19:05:07;;;;;;;;;;;25.20;38.50;;;;;;8299421;28;19924;-49
2022/05/15 19:09:08;;;;;;;;;;;25.20;38.60;;;;;;8298768;28;20316;-46
2022/05/15 19:13:08;;;;;;;;;;;25.20;38.60;;;;;;8299237;28;19929;-47
2022/05/15 19:17:09;;;;;;;;;;;25.10;38.60;;;;;;8298948;28;19951;-47
2022/05/15 19:21:10;;;;;;;;;;;25.10;38.60;;;;;;8298569;28;19951;-47
2022/05/15 19:25:10;;;;;;;;;;;25.20;38.60;;;;;;8299106;28;19918;-47
2022/05/15 19:29:13;;;;;;;;;;;25.20;38.60;;;;;;8298705;28;20389;-48
2022/05/15 19:33:14;;;;;;;;;;;25.10;38.60;;;;;;8297728;28;19972;-48
2022/05/15 19:37:15;;;;;;;;;;;25.10;38.60;;;;;;8298830;28;19917;-49
2022/05/15 19:41:16;;;;;;;;;;;25.10;38.70;;;;;;8298619;28;19917;-47
2022/05/15 19:45:17;;;;;;;;;;;25.10;38.70;;;;;;8297974;28;19971;-51
2022/05/15 19:49:18;;;;;;;;;;;25.10;38.70;;;;;;8298352;28;19924;-51
2022/05/15 19:53:19;;;;;;;;;;;25.10;38.70;;;;;;8296892;28;20021;-47
2022/05/15 19:57:20;;;;;;;;;;;25.10;38.70;;;;;;8297459;28;19918;-47
2022/05/15 20:01:22;;;;;;;;;;;25.10;38.70;;;;;;8297849;28;19976;-48
2022/05/15 20:14:03;;;;;;;;;;;25.10;38.70;;;;;;8298005;28;19952;-46
2022/05/15 20:18:04;;;;;;;;;;;25.10;38.70;;;;;;8297386;28;20267;-49
2022/05/15 20:22:04;;;;;;;;;;;25.00;38.60;;;;;;8297828;28;20000;-50
2022/05/15 20:26:05;;;;;;;;;;;25.10;38.70;;;;;;8297558;28;19945;-47
2022/05/15 20:30:07;;;;;;;;;;;25.10;38.70;;;;;;8296932;28;19917;-49
2022/05/15 20:34:09;;;;;;;;;;;25.00;38.60;;;;;;8297869;28;19921;-48
2022/05/15 20:38:10;;;;;;;;;;;25.00;38.70;;;;;;8297466;28;20378;-47
2022/05/15 20:42:11;;;;;;;;;;;25.00;38.60;;;;;;8297285;28;19925;-47
2022/05/15 20:46:11;;;;;;;;;;;25.10;38.70;;;;;;8303592;28;19917;-47
2022/05/15 20:50:12;;;;;;;;;;;25.10;38.70;;;;;;8303656;28;19921;-49
2022/05/15 20:54:13;;;;;;;;;;;25.00;38.70;;;;;;8303047;28;19932;-49
2022/05/15 20:58:14;;;;;;;;;;;25.00;38.70;;;;;;8303068;28;20374;-50
2022/05/15 21:02:14;;;;;;;;;;;25.10;38.80;;;;;;8303500;28;19926;-49
2022/05/15 21:06:15;;;;;;;;;;;25.00;38.70;;;;;;8302537;28;19921;-51
2022/05/15 21:10:15;;;;;;;;;;;25.00;38.80;;;;;;8302904;28;19918;-51
2022/05/15 21:14:16;;;;;;;;;;;25.00;38.70;;;;;;8303035;28;20375;-49
2022/05/15 21:18:16;;;;;;;;;;;25.00;38.70;;;;;;8302319;28;19925;-47
2022/05/15 21:22:17;;;;;;;;;;;25.00;38.80;;;;;;8302561;28;20386;-51
2022/05/15 21:26:18;;;;;;;;;;;25.00;38.80;;;;;;8302384;28;19925;-49
2022/05/15 21:30:18;;;;;;;;;;;25.00;38.80;;;;;;8301934;28;19919;-46
2022/05/15 21:34:18;;;;;;;;;;;25.00;38.80;;;;;;8302347;28;19921;-50
2022/05/15 21:47:19;;;;;;;;;;;25.00;39.00;;;;;;8173955;29;19926;-47
2022/05/15 21:51:21;;;;;;;;;;;25.00;39.00;;;;;;8220972;28;19954;-48
2022/05/15 21:55:21;;;;;;;;;;;25.00;39.00;;;;;;8299553;28;19933;-49
2022/05/15 22:03:41;;;;;;;;;;;25.00;39.10;;;;;;8299985;28;20005;-47
2022/05/15 22:07:41;;;;;;;;;;;25.00;39.00;;;;;;8300447;28;19918;-50
2022/05/15 22:11:42;;;;;;;;;;;25.00;39.20;;;;;;8300835;28;19992;-47
2022/05/15 22:15:42;;;;;;;;;;;24.90;39.10;;;;;;8300431;28;19926;-47
2022/05/15 22:19:46;;;;;;;;;;;25.00;39.10;;;;;;8301135;28;19948;-47
2022/05/15 22:23:48;;;;;;;;;;;24.90;39.10;;;;;;8300617;28;20751;-46
2022/05/15 22:27:49;;;;;;;;;;;24.90;39.20;;;;;;8300446;28;19988;-50
2022/05/15 22:31:49;;;;;;;;;;;24.90;39.20;;;;;;8300213;28;19918;-46
2022/05/15 22:35:52;;;;;;;;;;;24.90;39.20;;;;;;8299913;28;19930;-48
2022/05/15 22:39:52;;;;;;;;;;;24.90;39.20;;;;;;8300368;28;20450;-50
2022/05/15 22:43:53;;;;;;;;;;;24.90;39.30;;;;;;8299967;28;19917;-47
2022/05/15 22:47:53;;;;;;;;;;;24.80;39.20;;;;;;8299359;28;20020;-47
2022/05/15 22:51:54;;;;;;;;;;;24.80;39.20;;;;;;8300027;28;19918;-49
2022/05/15 22:55:54;;;;;;;;;;;24.80;39.30;;;;;;8299515;28;19964;-52
2022/05/15 22:59:55;;;;;;;;;;;24.80;39.30;;;;;;8299219;28;19913;-46
2022/05/15 23:03:55;;;;;;;;;;;24.80;39.20;;;;;;8299294;28;20298;-50
2022/05/15 23:07:55;;;;;;;;;;;24.80;39.30;;;;;;8298663;28;19918;-48
2022/05/15 23:11:56;;;;;;;;;;;24.80;39.20;;;;;;8298868;28;19968;-48
2022/05/15 23:15:56;;;;;;;;;;;24.80;39.30;;;;;;8299270;28;19967;-45
2022/05/15 23:19:57;;;;;;;;;;;24.80;39.30;;;;;;8299106;28;19964;-46
2022/05/15 23:23:57;;;;;;;;;;;24.80;39.30;;;;;;8298361;28;19925;-46
2022/05/15 23:27:58;;;;;;;;;;;24.80;39.30;;;;;;8298619;28;19924;-47
2022/05/15 23:31:59;;;;;;;;;;;24.80;39.30;;;;;;8298556;28;19920;-47
2022/05/15 23:35:59;;;;;;;;;;;24.80;39.30;;;;;;8297899;28;19973;-51
2022/05/15 23:39:59;;;;;;;;;;;24.80;39.30;;;;;;8298896;28;19948;-48
2022/05/15 23:44:00;;;;;;;;;;;24.80;39.30;;;;;;8298384;28;19953;-49
2022/05/15 23:48:00;;;;;;;;;;;24.80;39.30;;;;;;8297863;28;19914;-48
2022/05/15 23:52:01;;;;;;;;;;;24.80;39.30;;;;;;8298348;28;19968;-50
2022/05/15 23:56:01;;;;;;;;;;;24.80;39.30;;;;;;8298095;28;19921;-47
